createdAt,value
2018-05-29T00:00:22.760Z,18.63
2018-05-29T00:05:55.428Z,19.03
2018-05-29T00:08:23.870Z,19.67
2018-05-29T00:10:53.325Z,18.60
2018-05-29T00:13:21.774Z,18.00
2018-05-29T00:15:57.702Z,19.47
2018-05-29T00:18:26.434Z,18.23
2018-05-29T00:21:09.672Z,18.63
2018-05-29T00:23:37.756Z,19.00
2018-05-29T00:26:11.593Z,19.53
2018-05-29T00:28:40.043Z,18.47
2018-05-29T00:31:08.505Z,18.33
2018-05-29T00:33:36.934Z,19.73
2018-05-29T00:36:29.859Z,18.70
2018-05-29T00:38:57.562Z,18.70
2018-05-29T00:41:25.587Z,19.07
2018-05-29T00:43:54.011Z,18.17
2018-05-29T00:46:32.454Z,19.63
2018-05-29T00:49:00.886Z,17.53
2018-05-29T00:51:31.972Z,19.90
2018-05-29T00:54:00.065Z,19.07
2018-05-29T00:59:22.430Z,20.77
2018-05-29T01:01:50.089Z,17.70
2018-05-29T01:04:21.265Z,20.77
2018-05-29T01:06:50.018Z,23.20
2018-05-29T01:12:11.657Z,22.57
2018-05-29T01:14:39.287Z,22.83
2018-05-29T01:17:08.929Z,23.53
2018-05-29T01:19:36.589Z,17.87
2018-05-29T01:22:10.394Z,22.23
2018-05-29T01:24:38.062Z,21.20
2018-05-29T01:27:06.531Z,19.30
2018-05-29T01:29:34.190Z,22.23
2018-05-29T01:32:03.557Z,22.27
2018-05-29T01:34:31.674Z,21.90
2018-05-29T01:37:01.358Z,21.20
2018-05-29T01:39:29.400Z,22.47
2018-05-29T01:42:01.223Z,24.30
2018-05-29T01:44:28.879Z,21.67
2018-05-29T01:46:58.037Z,21.50
2018-05-29T01:49:26.479Z,22.63
2018-05-29T01:51:57.180Z,20.70
2018-05-29T01:54:24.836Z,21.77
2018-05-29T01:56:52.497Z,22.70
2018-05-29T01:59:20.538Z,21.90
2018-05-29T02:02:00.923Z,22.13
2018-05-29T02:04:29.796Z,22.87
2018-05-29T02:07:01.378Z,21.17
2018-05-29T02:09:29.022Z,22.63
2018-05-29T02:12:00.883Z,22.73
2018-05-29T02:14:28.662Z,22.23
2018-05-29T02:16:57.350Z,21.00
2018-05-29T02:19:25.417Z,23.10
2018-05-29T02:21:55.386Z,22.63
2018-05-29T02:24:23.058Z,24.13
2018-05-29T02:26:51.139Z,21.27
2018-05-29T02:29:18.824Z,22.70
2018-05-29T02:31:49.778Z,23.60
2018-05-29T02:34:17.584Z,21.80
2018-05-29T02:36:45.651Z,20.83
2018-05-29T02:39:14.095Z,23.53
2018-05-29T02:41:51.545Z,22.37
2018-05-29T02:44:19.218Z,23.67
2018-05-29T02:46:50.385Z,24.70
2018-05-29T02:49:18.367Z,24.57
2018-05-29T02:52:06.690Z,23.10
2018-05-29T02:54:34.393Z,23.90
2018-05-29T02:57:08.067Z,22.83
2018-05-29T02:59:35.731Z,26.30
2018-05-29T03:02:07.580Z,23.73
2018-05-29T03:04:35.301Z,24.27
2018-05-29T03:07:03.010Z,25.10
2018-05-29T03:09:31.068Z,24.00
2018-05-29T03:12:21.379Z,24.93
2018-05-29T03:14:49.861Z,23.93
2018-05-29T03:17:17.912Z,24.20
2018-05-29T03:19:46.329Z,24.33
2018-05-29T03:22:19.385Z,23.83
2018-05-29T03:24:47.419Z,24.37
2018-05-29T03:27:33.265Z,24.47
2018-05-29T03:30:02.436Z,22.23
2018-05-29T03:32:30.922Z,23.20
2018-05-29T03:34:58.595Z,23.53
2018-05-29T03:37:26.669Z,24.60
2018-05-29T03:39:55.117Z,24.27
2018-05-29T03:42:23.099Z,23.73
2018-05-29T03:44:50.760Z,24.20
2018-05-29T03:47:23.520Z,24.20
2018-05-29T03:49:51.166Z,25.47
2018-05-29T03:52:19.635Z,28.10
2018-05-29T03:54:48.649Z,26.13
2018-05-29T03:57:26.858Z,23.73
2018-05-29T03:59:54.526Z,25.53
2018-05-29T04:02:25.538Z,27.87
2018-05-29T04:04:53.966Z,25.17
2018-05-29T04:07:32.484Z,25.63
2018-05-29T04:10:00.539Z,24.87
2018-05-29T04:12:28.199Z,25.93
2018-05-29T04:14:57.031Z,25.00
2018-05-29T04:17:27.910Z,25.17
2018-05-29T04:19:55.604Z,25.53
2018-05-29T04:22:35.391Z,23.83
2018-05-29T04:25:03.883Z,24.40
2018-05-29T04:27:33.332Z,25.20
2018-05-29T04:30:00.971Z,23.67
2018-05-29T04:32:29.076Z,22.43
2018-05-29T04:34:58.078Z,22.70
2018-05-29T04:37:26.733Z,22.73
2018-05-29T04:39:55.187Z,22.33
2018-05-29T04:42:22.874Z,22.13
2018-05-29T04:44:51.059Z,22.97
2018-05-29T04:47:19.745Z,21.03
2018-05-29T04:49:48.139Z,21.13
2018-05-29T04:52:17.105Z,22.23
2018-05-29T04:54:44.757Z,22.67
2018-05-29T04:57:13.735Z,22.73
2018-05-29T04:59:41.810Z,21.10
2018-05-29T05:02:11.870Z,19.97
2018-05-29T05:04:39.550Z,21.20
2018-05-29T05:07:07.246Z,21.37
2018-05-29T05:09:35.326Z,21.70
2018-05-29T05:12:04.067Z,20.47
2018-05-29T05:14:32.500Z,21.23
2018-05-29T05:17:02.083Z,20.33
2018-05-29T05:19:30.626Z,17.93
2018-05-29T05:22:10.811Z,20.07
2018-05-29T05:24:39.281Z,20.40
2018-05-29T05:27:06.948Z,20.23
2018-05-29T05:29:35.365Z,19.87
2018-05-29T05:32:04.501Z,18.17
2018-05-29T05:34:32.545Z,20.97
2018-05-29T05:37:08.561Z,19.40
2018-05-29T05:39:36.976Z,18.77
2018-05-29T05:42:05.643Z,18.07
2018-05-29T05:44:35.208Z,17.67
2018-05-29T05:47:04.253Z,16.90
2018-05-29T05:49:32.687Z,17.97
2018-05-29T05:52:06.332Z,18.90
2018-05-29T05:54:34.354Z,17.67
2018-05-29T05:57:02.045Z,18.60
2018-05-29T05:59:29.722Z,17.50
2018-05-29T06:02:17.122Z,19.17
2018-05-29T06:04:45.521Z,19.57
2018-05-29T06:07:15.088Z,18.33
2018-05-29T06:09:45.999Z,17.20
2018-05-29T06:12:15.577Z,16.83
2018-05-29T06:14:44.828Z,17.57
2018-05-29T06:20:10.232Z,18.10
2018-05-29T06:22:37.901Z,15.47
2018-05-29T06:25:07.580Z,16.60
2018-05-29T06:27:35.257Z,16.53
2018-05-29T06:30:04.969Z,17.77
2018-05-29T06:32:32.633Z,15.87
2018-05-29T06:35:02.344Z,15.97
2018-05-29T06:37:30.519Z,17.87
2018-05-29T06:40:12.015Z,17.03
2018-05-29T06:42:40.100Z,16.47
2018-05-29T06:45:10.323Z,15.40
2018-05-29T06:47:37.969Z,14.47
2018-05-29T06:50:08.173Z,15.60
2018-05-29T06:52:35.828Z,16.80
2018-05-29T06:55:04.542Z,15.20
2018-05-29T06:57:32.235Z,15.73
2018-05-29T07:00:04.805Z,16.00
2018-05-29T07:02:33.253Z,16.50
2018-05-29T07:05:05.190Z,15.27
2018-05-29T07:07:32.889Z,15.43
2018-05-29T07:10:03.394Z,14.70
2018-05-29T07:12:31.466Z,14.80
2018-05-29T07:15:00.553Z,18.13
2018-05-29T07:17:28.259Z,14.27
2018-05-29T07:19:57.724Z,21.40
2018-05-29T07:22:25.404Z,16.50
2018-05-29T07:24:53.057Z,14.67
2018-05-29T07:27:21.100Z,17.50
2018-05-29T07:29:51.955Z,17.47
2018-05-29T07:32:19.625Z,18.40
2018-05-29T07:34:49.328Z,20.93
2018-05-29T07:37:18.222Z,16.63
2018-05-29T07:39:46.744Z,15.13
2018-05-29T07:42:15.140Z,15.87
2018-05-29T07:44:48.209Z,15.30
2018-05-29T07:47:15.853Z,15.83
2018-05-29T07:49:44.300Z,15.93
2018-05-29T07:52:12.376Z,15.43
2018-05-29T07:54:41.088Z,14.43
2018-05-29T07:57:09.137Z,17.60
2018-05-29T07:59:37.848Z,16.77
2018-05-29T08:02:05.690Z,16.53
2018-05-29T08:04:41.759Z,16.20
2018-05-29T08:07:09.404Z,15.20
2018-05-29T08:09:39.149Z,18.23
2018-05-29T08:12:07.566Z,14.63
2018-05-29T08:14:37.434Z,20.03
2018-05-29T08:17:05.099Z,15.07
2018-05-29T08:19:33.749Z,17.07
2018-05-29T08:22:02.959Z,14.53
2018-05-29T08:24:32.709Z,16.00
2018-05-29T08:27:00.340Z,14.53
2018-05-29T08:29:28.029Z,14.43
2018-05-29T08:31:56.461Z,13.63
2018-05-29T08:34:29.981Z,13.60
2018-05-29T08:36:58.425Z,12.97
2018-05-29T08:39:26.531Z,13.87
2018-05-29T08:41:54.354Z,18.20
2018-05-29T08:44:32.868Z,16.90
2018-05-29T08:47:00.552Z,13.30
2018-05-29T08:49:32.972Z,16.43
2018-05-29T08:52:02.155Z,14.23
2018-05-29T08:54:29.807Z,10.80
2018-05-29T08:56:57.492Z,11.90
2018-05-29T08:59:25.933Z,14.60
2018-05-29T09:01:54.739Z,13.00
2018-05-29T09:04:22.419Z,11.57
2018-05-29T09:06:50.095Z,14.47
2018-05-29T09:15:19.605Z,10.77
2018-05-29T09:17:47.292Z,12.03
2018-05-29T09:20:33.785Z,14.60
2018-05-29T09:23:02.226Z,9.90
2018-05-29T09:25:44.276Z,10.13
2018-05-29T09:28:12.366Z,9.40
2018-05-29T09:33:45.359Z,10.53
2018-05-29T09:36:13.808Z,8.97
2018-05-29T09:38:52.094Z,10.13
2018-05-29T09:41:19.734Z,10.50
2018-05-29T09:46:47.841Z,8.00
2018-05-29T09:49:15.858Z,10.80
2018-05-29T09:51:49.548Z,11.37
2018-05-29T09:54:17.228Z,9.63
2018-05-29T09:57:06.967Z,8.80
2018-05-29T09:59:34.600Z,9.07
2018-05-29T10:02:09.364Z,11.83
2018-05-29T10:04:37.020Z,13.67
2018-05-29T10:07:21.622Z,11.63
2018-05-29T10:09:50.042Z,9.50
2018-05-29T10:12:25.954Z,11.27
2018-05-29T10:14:53.751Z,11.30
2018-05-29T10:17:30.691Z,11.23
2018-05-29T10:19:59.821Z,12.63
2018-05-29T10:22:35.345Z,8.57
2018-05-29T10:25:04.924Z,8.77
2018-05-29T10:27:34.611Z,9.70
2018-05-29T10:30:03.049Z,8.53
2018-05-29T10:32:45.308Z,10.23
2018-05-29T10:35:12.948Z,10.40
2018-05-29T10:37:45.743Z,8.87
2018-05-29T10:40:13.418Z,8.67
2018-05-29T10:42:48.134Z,9.33
2018-05-29T10:45:15.796Z,8.70
2018-05-29T10:47:45.477Z,13.57
2018-05-29T10:50:13.131Z,9.57
2018-05-29T10:52:40.822Z,12.77
2018-05-29T10:55:08.469Z,9.40
2018-05-29T10:57:50.833Z,10.73
2018-05-29T11:00:19.302Z,8.37
2018-05-29T11:02:47.907Z,8.63
2018-05-29T11:05:16.302Z,11.20
2018-05-29T11:07:44.123Z,8.37
2018-05-29T11:10:11.778Z,11.53
2018-05-29T11:12:39.410Z,7.07
2018-05-29T11:15:07.486Z,6.87
2018-05-29T11:17:36.132Z,10.30
2018-05-29T11:20:03.889Z,6.60
2018-05-29T11:22:38.201Z,8.17
2018-05-29T11:25:06.625Z,9.17
2018-05-29T11:27:41.532Z,6.10
2018-05-29T11:30:09.214Z,8.97
2018-05-29T11:33:00.545Z,10.77
2018-05-29T11:35:28.227Z,6.43
2018-05-29T11:37:58.110Z,7.80
2018-05-29T11:40:26.556Z,7.23
2018-05-29T11:43:14.927Z,7.10
2018-05-29T11:45:43.005Z,6.33
2018-05-29T11:48:11.678Z,6.03
2018-05-29T11:50:39.389Z,5.87
2018-05-29T11:53:14.040Z,10.13
2018-05-29T11:55:42.881Z,7.77
2018-05-29T11:58:12.579Z,7.80
2018-05-29T12:00:40.277Z,8.47
2018-05-29T12:03:08.942Z,8.60
2018-05-29T12:05:36.619Z,7.47
2018-05-29T12:08:04.270Z,6.17
2018-05-29T12:10:31.908Z,7.30
2018-05-29T12:13:03.448Z,6.27
2018-05-29T12:15:31.089Z,8.13
2018-05-29T12:18:03.720Z,7.07
2018-05-29T12:20:31.368Z,9.20
2018-05-29T12:23:16.034Z,11.00
2018-05-29T12:25:43.677Z,6.63
2018-05-29T12:28:15.688Z,10.40
2018-05-29T12:30:43.344Z,10.83
2018-05-29T12:33:15.098Z,9.37
2018-05-29T12:35:42.765Z,13.00
2018-05-29T12:38:11.437Z,8.07
2018-05-29T12:40:39.092Z,6.60
2018-05-29T12:43:15.052Z,7.67
2018-05-29T12:45:42.710Z,9.10
2018-05-29T12:48:12.359Z,8.40
2018-05-29T12:50:40.804Z,27.70
2018-05-29T12:53:12.522Z,8.00
2018-05-29T12:55:40.225Z,6.73
2018-05-29T12:58:11.929Z,9.33
2018-05-29T13:00:39.589Z,7.80
2018-05-29T13:03:12.269Z,7.10
2018-05-29T13:05:39.964Z,8.93
2018-05-29T13:08:08.633Z,10.07
2018-05-29T13:10:37.117Z,8.80
2018-05-29T13:13:15.593Z,9.37
2018-05-29T13:15:44.028Z,10.10
2018-05-29T13:18:12.151Z,22.93
2018-05-29T13:20:39.790Z,7.30
2018-05-29T13:23:08.227Z,5.90
2018-05-29T13:25:36.332Z,9.93
2018-05-29T13:28:06.415Z,10.10
2018-05-29T13:30:34.097Z,27.23
2018-05-29T13:33:03.800Z,24.97
2018-05-29T13:35:31.457Z,7.17
2018-05-29T13:38:04.764Z,6.47
2018-05-29T13:40:33.249Z,6.60
2018-05-29T13:43:00.950Z,13.43
2018-05-29T13:45:29.360Z,5.70
2018-05-29T13:48:10.540Z,7.23
2018-05-29T13:50:38.177Z,6.07
2018-05-29T13:53:05.831Z,5.60
2018-05-29T13:55:34.766Z,8.90
2018-05-29T13:58:04.481Z,10.80
2018-05-29T14:00:32.517Z,8.03
2018-05-29T14:03:00.200Z,9.87
2018-05-29T14:05:27.892Z,10.20
2018-05-29T14:07:56.662Z,6.70
2018-05-29T14:10:24.404Z,8.13
2018-05-29T14:12:52.066Z,9.60
2018-05-29T14:15:19.720Z,6.78
2018-05-29T14:17:48.425Z,6.30
2018-05-29T14:20:16.090Z,7.97
2018-05-29T14:22:45.782Z,7.40
2018-05-29T14:25:13.471Z,7.23
2018-05-29T14:27:43.159Z,8.63
2018-05-29T14:30:11.581Z,7.60
2018-05-29T14:32:55.806Z,11.40
2018-05-29T14:35:23.866Z,6.65
2018-05-29T14:38:09.092Z,7.13
2018-05-29T14:40:37.547Z,8.07
2018-05-29T14:43:05.917Z,7.20
2018-05-29T14:45:33.956Z,8.23
2018-05-29T14:48:02.660Z,7.90
2018-05-29T14:50:30.324Z,5.93
2018-05-29T14:52:58.021Z,8.15
2018-05-29T14:55:25.670Z,7.45
2018-05-29T14:58:05.408Z,5.82
2018-05-29T15:00:33.053Z,5.97
2018-05-29T15:03:06.141Z,12.52
2018-05-29T15:05:33.806Z,8.10
2018-05-29T15:08:03.485Z,7.70
2018-05-29T15:10:31.169Z,7.40
2018-05-29T15:12:59.844Z,5.45
2018-05-29T15:15:27.646Z,8.02
2018-05-29T15:18:00.234Z,11.55
2018-05-29T15:20:27.970Z,6.85
2018-05-29T15:23:01.801Z,6.85
2018-05-29T15:25:30.622Z,6.65
2018-05-29T15:27:58.405Z,8.98
2018-05-29T15:30:26.050Z,10.93
2018-05-29T15:33:07.105Z,6.03
2018-05-29T15:35:35.517Z,7.12
2018-05-29T15:38:03.307Z,7.68
2018-05-29T15:40:30.966Z,6.83
2018-05-29T15:43:05.064Z,9.07
2018-05-29T15:45:32.683Z,6.33
2018-05-29T15:48:27.040Z,7.60
2018-05-29T15:50:54.694Z,8.63
2018-05-29T15:53:42.913Z,10.43
2018-05-29T15:56:10.555Z,7.30
2018-05-29T15:58:50.668Z,7.43
2018-05-29T16:01:18.327Z,7.63
2018-05-29T16:03:56.943Z,6.77
2018-05-29T16:06:25.357Z,9.50
2018-05-29T16:08:53.878Z,11.23
2018-05-29T16:11:21.792Z,12.70
2018-05-29T16:13:49.523Z,9.40
2018-05-29T16:16:17.160Z,10.80
2018-05-29T16:18:44.851Z,11.00
2018-05-29T16:21:14.009Z,11.97
2018-05-29T16:23:42.722Z,9.73
2018-05-29T16:26:10.389Z,10.30
2018-05-29T16:28:39.557Z,14.43
2018-05-29T16:31:07.207Z,8.63
2018-05-29T16:33:35.826Z,9.20
2018-05-29T16:36:03.539Z,9.70
2018-05-29T16:38:34.934Z,9.17
2018-05-29T16:41:02.592Z,10.93
2018-05-29T16:43:30.246Z,10.87
2018-05-29T16:45:57.923Z,16.13
2018-05-29T16:48:49.454Z,10.77
2018-05-29T16:54:14.891Z,9.03
2018-05-29T16:56:42.492Z,11.97
2018-05-29T16:59:10.488Z,11.20
2018-05-29T17:01:38.541Z,8.43
2018-05-29T17:04:06.568Z,14.03
2018-05-29T17:06:34.613Z,8.73
2018-05-29T17:09:03.605Z,10.27
2018-05-29T17:11:32.030Z,9.63
2018-05-29T17:13:59.637Z,10.60
2018-05-29T17:16:27.668Z,10.57
2018-05-29T17:18:55.307Z,9.17
2018-05-29T17:21:22.920Z,8.13
2018-05-29T17:23:51.733Z,9.70
2018-05-29T17:26:19.351Z,9.40
2018-05-29T17:28:47.736Z,8.03
2018-05-29T17:31:15.402Z,8.70
2018-05-29T17:33:43.043Z,8.10
2018-05-29T17:36:11.450Z,7.87
2018-05-29T17:38:39.082Z,9.10
2018-05-29T17:41:06.700Z,9.60
2018-05-29T17:43:34.502Z,9.40
2018-05-29T17:46:03.468Z,9.87
2018-05-29T17:48:31.480Z,11.17
2018-05-29T17:50:59.123Z,14.93
2018-05-29T17:53:26.748Z,12.47
2018-05-29T17:55:54.398Z,10.60
2018-05-29T17:58:22.802Z,8.40
2018-05-29T18:00:50.502Z,15.93
2018-05-29T18:03:18.131Z,10.93
2018-05-29T18:05:45.746Z,9.00
2018-05-29T18:08:13.382Z,8.00
2018-05-29T18:10:42.031Z,10.93
2018-05-29T18:13:09.683Z,11.63
2018-05-29T18:15:37.331Z,11.33
2018-05-29T18:18:05.749Z,9.80
2018-05-29T18:20:34.799Z,12.13
2018-05-29T18:23:03.277Z,10.60
2018-05-29T18:25:31.662Z,14.53
2018-05-29T18:28:00.056Z,12.90
2018-05-29T18:30:27.707Z,11.73
2018-05-29T18:32:56.088Z,13.17
2018-05-29T18:35:24.901Z,10.67
2018-05-29T18:37:53.291Z,11.90
2018-05-29T18:40:21.659Z,9.50
2018-05-29T18:42:50.060Z,11.50
2018-05-29T18:45:17.693Z,12.53
2018-05-29T18:47:46.156Z,13.70
2018-05-29T18:50:15.000Z,13.07
2018-05-29T18:52:42.631Z,12.87
2018-05-29T18:55:11.395Z,12.30
2018-05-29T18:57:39.828Z,14.70
2018-05-29T19:00:07.475Z,14.17
2018-05-29T19:02:35.634Z,16.30
2018-05-29T19:05:03.247Z,14.87
2018-05-29T19:07:31.249Z,15.47
2018-05-29T19:09:59.303Z,13.27
2018-05-29T19:12:27.711Z,16.57
2018-05-29T19:14:56.118Z,17.77
2018-05-29T19:17:23.745Z,16.93
2018-05-29T19:19:51.369Z,11.23
2018-05-29T19:22:19.027Z,12.27
2018-05-29T19:24:46.653Z,11.57
2018-05-29T19:27:15.471Z,13.53
2018-05-29T19:29:43.096Z,9.93
2018-05-29T19:32:12.595Z,8.37
2018-05-29T19:34:40.239Z,8.03
2018-05-29T19:37:07.872Z,9.10
2018-05-29T19:39:35.512Z,9.57
2018-05-29T19:42:03.560Z,9.73
2018-05-29T19:44:31.604Z,11.00
2018-05-29T19:46:59.609Z,11.33
2018-05-29T19:49:27.213Z,8.80
2018-05-29T19:51:54.831Z,10.20
2018-05-29T19:54:23.239Z,11.73
2018-05-29T19:56:51.659Z,13.97
2018-05-29T19:59:19.707Z,13.53
2018-05-29T20:01:47.362Z,10.80
2018-05-29T20:04:15.776Z,8.93
2018-05-29T20:06:43.438Z,9.57
2018-05-29T20:09:11.459Z,12.47
2018-05-29T20:11:39.128Z,10.50
2018-05-29T20:14:07.560Z,12.03
2018-05-29T20:16:35.554Z,10.57
2018-05-29T20:19:03.183Z,11.70
2018-05-29T20:21:30.794Z,14.50
2018-05-29T20:23:58.435Z,8.73
2018-05-29T20:26:26.076Z,13.20
2018-05-29T20:28:53.736Z,12.67
2018-05-29T20:31:21.795Z,12.30
2018-05-29T20:33:49.453Z,13.53
2018-05-29T20:36:17.507Z,11.63
2018-05-29T20:38:45.930Z,11.50
2018-05-29T20:41:13.552Z,10.77
2018-05-29T20:43:41.586Z,15.17
2018-05-29T20:46:09.613Z,11.17
2018-05-29T20:48:37.700Z,8.83
2018-05-29T20:51:05.349Z,9.17
2018-05-29T20:53:33.757Z,9.20
2018-05-29T20:56:01.814Z,10.33
2018-05-29T20:58:30.570Z,13.30
2018-05-29T21:00:58.239Z,12.67
2018-05-29T21:03:26.622Z,11.67
2018-05-29T21:05:54.293Z,8.27
2018-05-29T21:08:22.675Z,11.20
2018-05-29T21:10:51.087Z,14.87
2018-05-29T21:13:19.487Z,12.97
2018-05-29T21:15:47.110Z,22.33
2018-05-29T21:18:16.513Z,15.17
2018-05-29T21:20:44.147Z,11.77
2018-05-29T21:23:11.771Z,23.47
2018-05-29T21:25:39.430Z,23.03
2018-05-29T21:28:07.053Z,17.77
2018-05-29T21:30:35.461Z,24.13
2018-05-29T21:33:03.504Z,21.17
2018-05-29T21:35:31.441Z,34.97
2018-05-29T21:38:00.222Z,20.50
2018-05-29T21:40:28.626Z,23.17
2018-05-29T21:42:57.412Z,13.67
2018-05-29T21:45:25.027Z,19.87
2018-05-29T21:47:52.674Z,18.70
2018-05-29T21:50:21.805Z,19.17
2018-05-29T21:52:50.241Z,20.20
2018-05-29T21:55:18.278Z,22.47
2018-05-29T21:57:45.912Z,18.10
2018-05-29T22:00:13.973Z,23.83
2018-05-29T22:02:42.340Z,14.87
2018-05-29T22:05:10.097Z,18.80
2018-05-29T22:07:39.237Z,18.33
2018-05-29T22:10:06.864Z,20.47
2018-05-29T22:12:34.917Z,22.80
2018-05-29T22:15:02.571Z,22.53
2018-05-29T22:17:30.736Z,15.10
2018-05-29T22:19:58.364Z,15.87
2018-05-29T22:22:25.993Z,14.67
2018-05-29T22:24:54.045Z,16.00
2018-05-29T22:27:22.084Z,15.50
2018-05-29T22:29:49.732Z,14.47
2018-05-29T22:32:18.120Z,14.10
2018-05-29T22:34:46.185Z,14.10
2018-05-29T22:37:13.869Z,14.80
2018-05-29T22:39:41.540Z,15.53
2018-05-29T22:42:09.607Z,18.20
2018-05-29T22:44:37.637Z,14.57
2018-05-29T22:47:06.036Z,17.40
2018-05-29T22:49:33.691Z,20.07
2018-05-29T22:52:01.712Z,16.00
2018-05-29T22:54:29.860Z,16.53
2018-05-29T22:56:57.885Z,18.10
2018-05-29T22:59:26.274Z,16.67
2018-05-29T23:01:55.535Z,20.60
2018-05-29T23:04:24.005Z,14.03
2018-05-29T23:06:52.763Z,17.97
2018-05-29T23:09:20.383Z,14.20
2018-05-29T23:11:48.471Z,18.93
2018-05-29T23:14:16.863Z,16.23
2018-05-29T23:16:46.019Z,13.63
2018-05-29T23:19:13.628Z,18.33
2018-05-29T23:21:42.546Z,16.70
2018-05-29T23:24:10.189Z,15.17
2018-05-29T23:26:37.821Z,14.57
2018-05-29T23:29:06.245Z,16.07
2018-05-29T23:31:34.631Z,24.53
2018-05-29T23:34:02.289Z,20.80
2018-05-29T23:36:29.915Z,19.50
2018-05-29T23:38:57.581Z,16.97
2018-05-29T23:41:25.636Z,22.83
2018-05-29T23:43:53.655Z,19.17
2018-05-29T23:46:22.064Z,19.70
2018-05-29T23:48:49.701Z,22.50
2018-05-29T23:51:17.379Z,22.43
2018-05-29T23:53:45.427Z,20.13
2018-05-29T23:56:13.479Z,24.17
2018-05-29T23:58:42.442Z,23.77
